sensor_id;sensor_type;location;lat;lon;timestamp;pressure;altitude;pressure_sealevel;temperature;humidity
24620;BME280;12763;55.802;37.404;2024-03-08T00:01:35;99590.56;;;-1.70;99.78
24620;BME280;12763;55.802;37.404;2024-03-08T00:04:01;99600.25;;;-1.77;100.00
24620;BME280;12763;55.802;37.404;2024-03-08T00:06:27;99594.69;;;-1.86;99.13
24620;BME280;12763;55.802;37.404;2024-03-08T00:08:53;99582.28;;;-1.88;100.00
24620;BME280;12763;55.802;37.404;2024-03-08T00:11:19;99577.72;;;-1.68;99.50
24620;BME280;12763;55.802;37.404;2024-03-08T00:13:46;99578.72;;;-1.89;99.80
24620;BME280;12763;55.802;37.404;2024-03-08T00:16:12;99574.16;;;-1.88;100.00
24620;BME280;12763;55.802;37.404;2024-03-08T00:18:38;99571.47;;;-1.88;100.00
24620;BME280;12763;55.802;37.404;2024-03-08T00:21:04;99564.38;;;-1.80;100.00
24620;BME280;12763;55.802;37.404;2024-03-08T00:23:30;99558.78;;;-1.68;99.96
24620;BME280;12763;55.802;37.404;2024-03-08T00:25:55;99554.63;;;-2.01;100.00
24620;BME280;12763;55.802;37.404;2024-03-08T00:28:21;99546.09;;;-1.87;100.00
24620;BME280;12763;55.802;37.404;2024-03-08T00:30:47;99552.38;;;-1.87;99.60
24620;BME280;12763;55.802;37.404;2024-03-08T00:33:13;99543.47;;;-2.27;100.00
24620;BME280;12763;55.802;37.404;2024-03-08T00:35:39;99546.00;;;-1.86;100.00
24620;BME280;12763;55.802;37.404;2024-03-08T00:38:05;99538.41;;;-1.82;100.00
24620;BME280;12763;55.802;37.404;2024-03-08T00:40:31;99535.91;;;-1.74;100.00
24620;BME280;12763;55.802;37.404;2024-03-08T00:42:57;99527.59;;;-1.82;100.00
24620;BME280;12763;55.802;37.404;2024-03-08T00:45:22;99527.31;;;-1.79;100.00
24620;BME280;12763;55.802;37.404;2024-03-08T00:47:49;99520.22;;;-1.80;100.00
24620;BME280;12763;55.802;37.404;2024-03-08T00:50:15;99523.63;;;-1.78;100.00
24620;BME280;12763;55.802;37.404;2024-03-08T00:52:41;99521.06;;;-1.70;100.00
24620;BME280;12763;55.802;37.404;2024-03-08T00:55:07;99520.50;;;-1.45;99.03
24620;BME280;12763;55.802;37.404;2024-03-08T00:57:36;99517.38;;;-1.50;98.07
24620;BME280;12763;55.802;37.404;2024-03-08T01:00:03;99502.69;;;-1.38;97.58
24620;BME280;12763;55.802;37.404;2024-03-08T01:02:32;99493.28;;;-1.43;97.29
24620;BME280;12763;55.802;37.404;2024-03-08T01:05:01;99509.13;;;-1.58;98.50
24620;BME280;12763;55.802;37.404;2024-03-08T01:07:30;99490.88;;;-1.65;99.71
24620;BME280;12763;55.802;37.404;2024-03-08T01:09:56;99493.72;;;-1.67;99.12
24620;BME280;12763;55.802;37.404;2024-03-08T01:12:23;99497.44;;;-1.58;98.50
24620;BME280;12763;55.802;37.404;2024-03-08T01:14:48;99500.56;;;-1.72;100.00
24620;BME280;12763;55.802;37.404;2024-03-08T01:17:14;99496.31;;;-1.75;100.00
24620;BME280;12763;55.802;37.404;2024-03-08T01:19:40;99494.00;;;-1.89;100.00
24620;BME280;12763;55.802;37.404;2024-03-08T01:22:06;99490.59;;;-2.10;100.00
24620;BME280;12763;55.802;37.404;2024-03-08T01:24:33;99477.75;;;-1.99;100.00
24620;BME280;12763;55.802;37.404;2024-03-08T01:27:00;99493.97;;;-1.99;100.00
24620;BME280;12763;55.802;37.404;2024-03-08T01:29:27;99487.00;;;-2.01;100.00
24620;BME280;12763;55.802;37.404;2024-03-08T01:31:55;99489.28;;;-2.06;100.00
24620;BME280;12763;55.802;37.404;2024-03-08T01:34:22;99497.69;;;-2.09;100.00
24620;BME280;12763;55.802;37.404;2024-03-08T01:36:50;99489.31;;;-1.97;100.00
24620;BME280;12763;55.802;37.404;2024-03-08T01:39:16;99498.00;;;-1.84;100.00
24620;BME280;12763;55.802;37.404;2024-03-08T01:41:42;99484.91;;;-2.07;100.00
24620;BME280;12763;55.802;37.404;2024-03-08T01:44:08;99486.47;;;-1.86;100.00
24620;BME280;12763;55.802;37.404;2024-03-08T01:46:34;99488.88;;;-1.92;100.00
24620;BME280;12763;55.802;37.404;2024-03-08T01:49:01;99490.25;;;-2.26;100.00
24620;BME280;12763;55.802;37.404;2024-03-08T01:51:28;99487.97;;;-2.31;100.00
24620;BME280;12763;55.802;37.404;2024-03-08T01:53:55;99492.94;;;-2.26;100.00
24620;BME280;12763;55.802;37.404;2024-03-08T01:56:21;99487.97;;;-2.31;100.00
24620;BME280;12763;55.802;37.404;2024-03-08T01:58:47;99487.09;;;-2.41;100.00
24620;BME280;12763;55.802;37.404;2024-03-08T02:01:13;99488.28;;;-2.24;100.00
24620;BME280;12763;55.802;37.404;2024-03-08T02:03:42;99482.50;;;-2.50;100.00
24620;BME280;12763;55.802;37.404;2024-03-08T02:06:11;99486.78;;;-2.48;100.00
24620;BME280;12763;55.802;37.404;2024-03-08T02:08:39;99487.31;;;-2.54;100.00
24620;BME280;12763;55.802;37.404;2024-03-08T02:11:05;99482.28;;;-2.68;100.00
24620;BME280;12763;55.802;37.404;2024-03-08T02:13:31;99479.84;;;-2.80;100.00
24620;BME280;12763;55.802;37.404;2024-03-08T02:15:59;99468.63;;;-2.76;100.00
24620;BME280;12763;55.802;37.404;2024-03-08T02:18:45;99481.78;;;-2.92;100.00
24620;BME280;12763;55.802;37.404;2024-03-08T02:21:11;99485.16;;;-3.00;100.00
24620;BME280;12763;55.802;37.404;2024-03-08T02:23:37;99486.78;;;-2.87;100.00
24620;BME280;12763;55.802;37.404;2024-03-08T02:26:03;99479.53;;;-2.87;100.00
24620;BME280;12763;55.802;37.404;2024-03-08T02:28:31;99478.03;;;-3.01;100.00
24620;BME280;12763;55.802;37.404;2024-03-08T02:30:56;99477.22;;;-3.01;100.00
24620;BME280;12763;55.802;37.404;2024-03-08T02:33:23;99471.38;;;-2.97;100.00
24620;BME280;12763;55.802;37.404;2024-03-08T02:35:50;99480.97;;;-3.13;100.00
24620;BME280;12763;55.802;37.404;2024-03-08T02:38:19;99479.13;;;-3.13;100.00
24620;BME280;12763;55.802;37.404;2024-03-08T02:40:46;99464.84;;;-3.24;100.00
24620;BME280;12763;55.802;37.404;2024-03-08T02:43:13;99484.66;;;-3.14;100.00
24620;BME280;12763;55.802;37.404;2024-03-08T02:45:44;99466.50;;;-3.33;100.00
24620;BME280;12763;55.802;37.404;2024-03-08T02:48:14;99471.31;;;-3.36;100.00
24620;BME280;12763;55.802;37.404;2024-03-08T02:50:40;99474.19;;;-3.28;100.00
24620;BME280;12763;55.802;37.404;2024-03-08T02:53:08;99471.50;;;-3.28;100.00
24620;BME280;12763;55.802;37.404;2024-03-08T02:55:37;99472.28;;;-3.17;100.00
24620;BME280;12763;55.802;37.404;2024-03-08T02:58:03;99462.34;;;-3.37;100.00
24620;BME280;12763;55.802;37.404;2024-03-08T03:00:30;99465.78;;;-3.56;100.00
24620;BME280;12763;55.802;37.404;2024-03-08T03:02:57;99460.50;;;-3.36;100.00
24620;BME280;12763;55.802;37.404;2024-03-08T03:05:24;99457.22;;;-3.19;100.00
24620;BME280;12763;55.802;37.404;2024-03-08T03:07:51;99460.50;;;-3.36;100.00
24620;BME280;12763;55.802;37.404;2024-03-08T03:10:17;99447.09;;;-3.47;100.00
24620;BME280;12763;55.802;37.404;2024-03-08T03:12:45;99437.72;;;-3.23;100.00
24620;BME280;12763;55.802;37.404;2024-03-08T03:15:17;99448.47;;;-3.53;100.00
24620;BME280;12763;55.802;37.404;2024-03-08T03:17:47;99434.63;;;-3.18;100.00
24620;BME280;12763;55.802;37.404;2024-03-08T03:20:14;99439.97;;;-3.28;100.00
24620;BME280;12763;55.802;37.404;2024-03-08T03:22:41;99427.00;;;-3.34;100.00
24620;BME280;12763;55.802;37.404;2024-03-08T03:25:08;99423.22;;;-3.01;100.00
24620;BME280;12763;55.802;37.404;2024-03-08T03:27:36;99421.84;;;-3.46;100.00
24620;BME280;12763;55.802;37.404;2024-03-08T03:30:03;99412.88;;;-3.26;100.00
24620;BME280;12763;55.802;37.404;2024-03-08T03:32:50;99421.75;;;-3.05;100.00
24620;BME280;12763;55.802;37.404;2024-03-08T03:35:17;99414.34;;;-3.43;100.00
24620;BME280;12763;55.802;37.404;2024-03-08T03:37:44;99418.78;;;-3.32;100.00
24620;BME280;12763;55.802;37.404;2024-03-08T03:40:12;99414.81;;;-3.28;100.00
24620;BME280;12763;55.802;37.404;2024-03-08T03:42:38;99407.28;;;-3.04;100.00
24620;BME280;12763;55.802;37.404;2024-03-08T03:45:06;99410.41;;;-2.99;100.00
24620;BME280;12763;55.802;37.404;2024-03-08T03:47:32;99422.44;;;-3.13;100.00
24620;BME280;12763;55.802;37.404;2024-03-08T03:49:58;99425.50;;;-2.87;100.00
24620;BME280;12763;55.802;37.404;2024-03-08T03:52:30;99414.28;;;-2.92;100.00
24620;BME280;12763;55.802;37.404;2024-03-08T03:54:57;99413.56;;;-2.84;100.00
24620;BME280;12763;55.802;37.404;2024-03-08T03:57:23;99423.56;;;-2.85;100.00
24620;BME280;12763;55.802;37.404;2024-03-08T03:59:49;99414.00;;;-2.89;100.00
24620;BME280;12763;55.802;37.404;2024-03-08T04:02:17;99431.47;;;-2.93;100.00
24620;BME280;12763;55.802;37.404;2024-03-08T04:04:43;99423.66;;;-3.26;100.00
24620;BME280;12763;55.802;37.404;2024-03-08T04:07:11;99431.59;;;-3.25;100.00
24620;BME280;12763;55.802;37.404;2024-03-08T04:09:37;99421.13;;;-3.48;100.00
24620;BME280;12763;55.802;37.404;2024-03-08T04:12:05;99410.06;;;-3.15;100.00
24620;BME280;12763;55.802;37.404;2024-03-08T04:14:31;99399.84;;;-3.42;100.00
24620;BME280;12763;55.802;37.404;2024-03-08T04:16:57;99393.41;;;-3.50;100.00
24620;BME280;12763;55.802;37.404;2024-03-08T04:19:23;99406.50;;;-3.46;100.00
24620;BME280;12763;55.802;37.404;2024-03-08T04:21:50;99406.78;;;-3.49;100.00
24620;BME280;12763;55.802;37.404;2024-03-08T04:24:15;99415.66;;;-3.37;100.00
24620;BME280;12763;55.802;37.404;2024-03-08T04:26:42;99393.09;;;-2.97;100.00
24620;BME280;12763;55.802;37.404;2024-03-08T04:29:09;99396.88;;;-3.09;100.00
24620;BME280;12763;55.802;37.404;2024-03-08T04:31:34;99397.38;;;-2.94;100.00
24620;BME280;12763;55.802;37.404;2024-03-08T04:34:00;99395.09;;;-2.89;100.00
24620;BME280;12763;55.802;37.404;2024-03-08T04:36:26;99392.66;;;-3.02;100.00
24620;BME280;12763;55.802;37.404;2024-03-08T04:38:52;99406.44;;;-2.95;100.00
24620;BME280;12763;55.802;37.404;2024-03-08T04:41:18;99390.22;;;-3.05;100.00
24620;BME280;12763;55.802;37.404;2024-03-08T04:43:45;99390.06;;;-3.13;100.00
24620;BME280;12763;55.802;37.404;2024-03-08T04:46:11;99389.69;;;-2.89;100.00
24620;BME280;12763;55.802;37.404;2024-03-08T04:48:37;99385.22;;;-3.09;100.00
24620;BME280;12763;55.802;37.404;2024-03-08T04:51:03;99387.59;;;-2.76;100.00
24620;BME280;12763;55.802;37.404;2024-03-08T04:53:29;99376.09;;;-2.78;100.00
24620;BME280;12763;55.802;37.404;2024-03-08T04:55:57;99384.13;;;-2.97;100.00
24620;BME280;12763;55.802;37.404;2024-03-08T04:58:23;99375.47;;;-3.31;100.00
24620;BME280;12763;55.802;37.404;2024-03-08T05:00:49;99373.13;;;-3.15;100.00
24620;BME280;12763;55.802;37.404;2024-03-08T05:03:16;99377.31;;;-3.01;100.00
24620;BME280;12763;55.802;37.404;2024-03-08T05:05:42;99375.88;;;-3.35;100.00
24620;BME280;12763;55.802;37.404;2024-03-08T05:08:08;99364.31;;;-3.17;100.00
24620;BME280;12763;55.802;37.404;2024-03-08T05:10:34;99370.09;;;-2.91;100.00
24620;BME280;12763;55.802;37.404;2024-03-08T05:13:00;99369.94;;;-2.99;100.00
24620;BME280;12763;55.802;37.404;2024-03-08T05:15:26;99357.28;;;-2.99;100.00
24620;BME280;12763;55.802;37.404;2024-03-08T05:17:52;99357.28;;;-2.89;100.00
24620;BME280;12763;55.802;37.404;2024-03-08T05:20:18;99342.53;;;-2.75;100.00
24620;BME280;12763;55.802;37.404;2024-03-08T05:22:45;99350.53;;;-2.74;100.00
24620;BME280;12763;55.802;37.404;2024-03-08T05:25:12;99347.34;;;-2.79;100.00
24620;BME280;12763;55.802;37.404;2024-03-08T05:27:40;99359.22;;;-2.42;100.00
24620;BME280;12763;55.802;37.404;2024-03-08T05:30:06;99353.94;;;-2.53;100.00
24620;BME280;12763;55.802;37.404;2024-03-08T05:32:32;99354.63;;;-2.70;100.00
24620;BME280;12763;55.802;37.404;2024-03-08T05:34:58;99349.91;;;-2.87;100.00
24620;BME280;12763;55.802;37.404;2024-03-08T05:37:23;99344.66;;;-2.79;100.00
24620;BME280;12763;55.802;37.404;2024-03-08T05:39:49;99353.38;;;-2.66;100.00
24620;BME280;12763;55.802;37.404;2024-03-08T05:42:15;99352.25;;;-2.34;100.00
24620;BME280;12763;55.802;37.404;2024-03-08T05:44:41;99351.53;;;-2.65;100.00
24620;BME280;12763;55.802;37.404;2024-03-08T05:47:07;99339.03;;;-2.38;100.00
24620;BME280;12763;55.802;37.404;2024-03-08T05:49:33;99352.38;;;-2.46;100.00
24620;BME280;12763;55.802;37.404;2024-03-08T05:51:59;99349.97;;;-2.20;100.00
24620;BME280;12763;55.802;37.404;2024-03-08T05:54:26;99351.13;;;-2.42;100.00
24620;BME280;12763;55.802;37.404;2024-03-08T05:56:53;99355.38;;;-2.49;100.00
24620;BME280;12763;55.802;37.404;2024-03-08T05:59:20;99352.84;;;-2.21;100.00
24620;BME280;12763;55.802;37.404;2024-03-08T06:01:48;99350.09;;;-1.83;100.00
24620;BME280;12763;55.802;37.404;2024-03-08T06:04:14;99351.81;;;-2.01;100.00
24620;BME280;12763;55.802;37.404;2024-03-08T06:06:40;99348.97;;;-2.09;100.00
24620;BME280;12763;55.802;37.404;2024-03-08T06:09:06;99345.44;;;-2.19;100.00
24620;BME280;12763;55.802;37.404;2024-03-08T06:11:37;99359.94;;;-2.11;100.00
24620;BME280;12763;55.802;37.404;2024-03-08T06:14:03;99348.25;;;-1.92;100.00
24620;BME280;12763;55.802;37.404;2024-03-08T06:16:29;99348.69;;;-2.06;100.00
24620;BME280;12763;55.802;37.404;2024-03-08T06:18:58;99348.91;;;-1.61;100.00
24620;BME280;12763;55.802;37.404;2024-03-08T06:21:27;99346.94;;;-1.69;100.00
24620;BME280;12763;55.802;37.404;2024-03-08T06:23:53;99352.47;;;-1.61;100.00
24620;BME280;12763;55.802;37.404;2024-03-08T06:26:26;99349.38;;;-2.04;100.00
24620;BME280;12763;55.802;37.404;2024-03-08T06:28:54;99349.47;;;-1.67;100.00
24620;BME280;12763;55.802;37.404;2024-03-08T06:31:21;99351.66;;;-1.81;100.00
24620;BME280;12763;55.802;37.404;2024-03-08T06:33:47;99341.47;;;-1.50;100.00
24620;BME280;12763;55.802;37.404;2024-03-08T06:36:16;99341.56;;;-1.42;100.00
24620;BME280;12763;55.802;37.404;2024-03-08T06:38:45;99346.69;;;-1.39;100.00
24620;BME280;12763;55.802;37.404;2024-03-08T06:41:11;99340.31;;;-1.47;100.00
24620;BME280;12763;55.802;37.404;2024-03-08T06:43:44;99331.44;;;-1.03;100.00
24620;BME280;12763;55.802;37.404;2024-03-08T06:46:11;99341.28;;;-1.39;100.00
24620;BME280;12763;55.802;37.404;2024-03-08T06:48:39;99348.38;;;-1.38;100.00
24620;BME280;12763;55.802;37.404;2024-03-08T06:51:06;99337.28;;;-1.07;100.00
24620;BME280;12763;55.802;37.404;2024-03-08T06:53:32;99343.31;;;-1.13;100.00
24620;BME280;12763;55.802;37.404;2024-03-08T06:55:58;99333.94;;;-1.56;100.00
24620;BME280;12763;55.802;37.404;2024-03-08T06:58:24;99326.25;;;-0.96;100.00
24620;BME280;12763;55.802;37.404;2024-03-08T07:00:51;99342.19;;;-0.93;100.00
24620;BME280;12763;55.802;37.404;2024-03-08T07:03:21;99332.59;;;-0.61;100.00
24620;BME280;12763;55.802;37.404;2024-03-08T07:05:47;99342.66;;;-1.25;100.00
24620;BME280;12763;55.802;37.404;2024-03-08T07:08:13;99326.13;;;-1.32;100.00
24620;BME280;12763;55.802;37.404;2024-03-08T07:10:40;99315.13;;;-0.93;100.00
24620;BME280;12763;55.802;37.404;2024-03-08T07:13:11;99329.22;;;-1.17;100.00
24620;BME280;12763;55.802;37.404;2024-03-08T07:15:37;99338.09;;;-1.25;100.00
24620;BME280;12763;55.802;37.404;2024-03-08T07:18:03;99337.47;;;-1.19;100.00
24620;BME280;12763;55.802;37.404;2024-03-08T07:20:29;99328.53;;;-0.92;100.00
24620;BME280;12763;55.802;37.404;2024-03-08T07:22:55;99328.22;;;-0.89;100.00
24620;BME280;12763;55.802;37.404;2024-03-08T07:25:21;99329.44;;;-0.56;100.00
24620;BME280;12763;55.802;37.404;2024-03-08T07:27:51;99328.19;;;-0.44;100.00
24620;BME280;12763;55.802;37.404;2024-03-08T07:30:22;99337.34;;;-0.45;100.00
24620;BME280;12763;55.802;37.404;2024-03-08T07:33:06;99341.66;;;-0.52;100.00
24620;BME280;12763;55.802;37.404;2024-03-08T07:35:33;99329.81;;;-0.51;100.00
24620;BME280;12763;55.802;37.404;2024-03-08T07:38:08;99334.47;;;-0.26;100.00
24620;BME280;12763;55.802;37.404;2024-03-08T07:40:38;99327.25;;;-0.35;100.00
24620;BME280;12763;55.802;37.404;2024-03-08T07:43:07;99338.56;;;-0.22;100.00
24620;BME280;12763;55.802;37.404;2024-03-08T07:45:33;99333.06;;;-0.12;100.00
24620;BME280;12763;55.802;37.404;2024-03-08T07:48:01;99333.63;;;-0.09;100.00
24620;BME280;12763;55.802;37.404;2024-03-08T07:50:28;99328.81;;;-0.32;100.00
24620;BME280;12763;55.802;37.404;2024-03-08T07:52:54;99323.59;;;-0.08;100.00
24620;BME280;12763;55.802;37.404;2024-03-08T07:55:20;99328.53;;;0.14;100.00
24620;BME280;12763;55.802;37.404;2024-03-08T07:57:49;99310.69;;;0.29;100.00
24620;BME280;12763;55.802;37.404;2024-03-08T08:00:16;99320.16;;;0.51;100.00
24620;BME280;12763;55.802;37.404;2024-03-08T08:02:44;99317.34;;;0.35;100.00
24620;BME280;12763;55.802;37.404;2024-03-08T08:05:11;99308.13;;;0.53;100.00
24620;BME280;12763;55.802;37.404;2024-03-08T08:07:37;99313.34;;;0.47;100.00
24620;BME280;12763;55.802;37.404;2024-03-08T08:10:04;99318.16;;;0.61;100.00
24620;BME280;12763;55.802;37.404;2024-03-08T08:12:32;99309.56;;;0.40;100.00
24620;BME280;12763;55.802;37.404;2024-03-08T08:15:00;99306.56;;;0.51;100.00
24620;BME280;12763;55.802;37.404;2024-03-08T08:17:26;99309.19;;;0.61;100.00
24620;BME280;12763;55.802;37.404;2024-03-08T08:19:52;99307.47;;;0.59;100.00
24620;BME280;12763;55.802;37.404;2024-03-08T08:22:18;99304.13;;;0.99;100.00
24620;BME280;12763;55.802;37.404;2024-03-08T08:24:43;99296.31;;;1.04;100.00
24620;BME280;12763;55.802;37.404;2024-03-08T08:27:09;99304.75;;;1.35;100.00
24620;BME280;12763;55.802;37.404;2024-03-08T08:29:37;99313.97;;;1.08;100.00
24620;BME280;12763;55.802;37.404;2024-03-08T08:32:03;99302.81;;;1.19;100.00
24620;BME280;12763;55.802;37.404;2024-03-08T08:34:29;99299.44;;;1.26;100.00
24620;BME280;12763;55.802;37.404;2024-03-08T08:36:56;99304.34;;;1.22;100.00
24620;BME280;12763;55.802;37.404;2024-03-08T08:39:22;99305.19;;;1.23;100.00
24620;BME280;12763;55.802;37.404;2024-03-08T08:41:48;99299.78;;;1.23;100.00
24620;BME280;12763;55.802;37.404;2024-03-08T08:44:15;99311.81;;;0.78;100.00
24620;BME280;12763;55.802;37.404;2024-03-08T08:46:40;99304.34;;;0.80;100.00
24620;BME280;12763;55.802;37.404;2024-03-08T08:49:06;99305.19;;;0.81;100.00
24620;BME280;12763;55.802;37.404;2024-03-08T08:51:36;99297.28;;;0.95;100.00
24620;BME280;12763;55.802;37.404;2024-03-08T08:54:02;99301.31;;;0.83;100.00
24620;BME280;12763;55.802;37.404;2024-03-08T08:56:29;99295.66;;;1.10;100.00
24620;BME280;12763;55.802;37.404;2024-03-08T08:58:55;99298.38;;;1.10;100.00
24620;BME280;12763;55.802;37.404;2024-03-08T09:01:21;99290.22;;;1.10;100.00
24620;BME280;12763;55.802;37.404;2024-03-08T09:03:48;99294.03;;;0.92;100.00
24620;BME280;12763;55.802;37.404;2024-03-08T09:06:16;99289.81;;;0.97;100.00
24620;BME280;12763;55.802;37.404;2024-03-08T09:08:42;99286.69;;;1.18;100.00
24620;BME280;12763;55.802;37.404;2024-03-08T09:11:10;99284.22;;;1.49;100.00
24620;BME280;12763;55.802;37.404;2024-03-08T09:13:36;99284.03;;;1.42;100.00
24620;BME280;12763;55.802;37.404;2024-03-08T09:16:02;99281.47;;;1.41;100.00
24620;BME280;12763;55.802;37.404;2024-03-08T09:18:32;99279.44;;;1.51;100.00
24620;BME280;12763;55.802;37.404;2024-03-08T09:20:59;99288.25;;;1.29;100.00
24620;BME280;12763;55.802;37.404;2024-03-08T09:23:25;99288.47;;;1.51;100.00
24620;BME280;12763;55.802;37.404;2024-03-08T09:25:56;99286.63;;;1.76;100.00
24620;BME280;12763;55.802;37.404;2024-03-08T09:28:25;99281.34;;;2.07;100.00
24620;BME280;12763;55.802;37.404;2024-03-08T09:30:53;99285.75;;;2.24;100.00
24620;BME280;12763;55.802;37.404;2024-03-08T09:33:18;99296.16;;;2.04;100.00
24620;BME280;12763;55.802;37.404;2024-03-08T09:35:46;99293.06;;;1.99;100.00
24620;BME280;12763;55.802;37.404;2024-03-08T09:38:17;99286.28;;;2.11;100.00
24620;BME280;12763;55.802;37.404;2024-03-08T09:40:43;99288.09;;;2.51;100.00
24620;BME280;12763;55.802;37.404;2024-03-08T09:43:10;99276.06;;;1.89;100.00
24620;BME280;12763;55.802;37.404;2024-03-08T09:45:37;99289.34;;;2.00;100.00
24620;BME280;12763;55.802;37.404;2024-03-08T09:48:11;99293.44;;;2.12;100.00
24620;BME280;12763;55.802;37.404;2024-03-08T09:50:40;99286.44;;;2.02;100.00
24620;BME280;12763;55.802;37.404;2024-03-08T09:53:07;99286.44;;;1.94;100.00
24620;BME280;12763;55.802;37.404;2024-03-08T09:55:37;99283.53;;;2.27;100.00
24620;BME280;12763;55.802;37.404;2024-03-08T09:58:11;99290.34;;;1.99;100.00
24620;BME280;12763;55.802;37.404;2024-03-08T10:00:56;99283.53;;;2.35;100.00
24620;BME280;12763;55.802;37.404;2024-03-08T10:03:23;99277.75;;;2.22;100.00
24620;BME280;12763;55.802;37.404;2024-03-08T10:05:51;99283.38;;;1.72;100.00
24620;BME280;12763;55.802;37.404;2024-03-08T10:08:17;99267.91;;;1.65;100.00
24620;BME280;12763;55.802;37.404;2024-03-08T10:10:44;99278.44;;;2.16;100.00
24620;BME280;12763;55.802;37.404;2024-03-08T10:13:10;99271.13;;;2.17;100.00
24620;BME280;12763;55.802;37.404;2024-03-08T10:15:39;99276.19;;;2.44;100.00
24620;BME280;12763;55.802;37.404;2024-03-08T10:18:07;99276.75;;;2.07;100.00
24620;BME280;12763;55.802;37.404;2024-03-08T10:20:33;99276.41;;;2.02;100.00
24620;BME280;12763;55.802;37.404;2024-03-08T10:23:03;99269.59;;;2.14;100.00
24620;BME280;12763;55.802;37.404;2024-03-08T10:25:34;99264.84;;;2.08;100.00
24620;BME280;12763;55.802;37.404;2024-03-08T10:28:03;99276.41;;;2.26;100.00
24620;BME280;12763;55.802;37.404;2024-03-08T10:30:31;99265.31;;;2.44;100.00
24620;BME280;12763;55.802;37.404;2024-03-08T10:32:59;99267.84;;;2.54;100.00
24620;BME280;12763;55.802;37.404;2024-03-08T10:35:29;99264.53;;;2.74;100.00
24620;BME280;12763;55.802;37.404;2024-03-08T10:37:59;99262.66;;;2.75;100.00
24620;BME280;12763;55.802;37.404;2024-03-08T10:40:30;99268.50;;;2.56;100.00
24620;BME280;12763;55.802;37.404;2024-03-08T10:42:59;99273.31;;;2.46;100.00
24620;BME280;12763;55.802;37.404;2024-03-08T10:45:38;99273.66;;;2.43;100.00
24620;BME280;12763;55.802;37.404;2024-03-08T10:48:31;99273.66;;;2.18;100.00
24620;BME280;12763;55.802;37.404;2024-03-08T10:50:59;99272.69;;;2.03;100.00
24620;BME280;12763;55.802;37.404;2024-03-08T10:53:27;99279.97;;;2.11;100.00
24620;BME280;12763;55.802;37.404;2024-03-08T10:55:58;99274.34;;;2.36;100.00
24620;BME280;12763;55.802;37.404;2024-03-08T10:58:25;99267.38;;;2.26;100.00
24620;BME280;12763;55.802;37.404;2024-03-08T11:00:55;99260.03;;;2.51;100.00
24620;BME280;12763;55.802;37.404;2024-03-08T11:03:45;99254.66;;;2.81;100.00
24620;BME280;12763;55.802;37.404;2024-03-08T11:06:52;99262.41;;;2.46;100.00
24620;BME280;12763;55.802;37.404;2024-03-08T11:09:30;99265.19;;;2.76;100.00
24620;BME280;12763;55.802;37.404;2024-03-08T11:12:25;99260.50;;;2.54;100.00
24620;BME280;12763;55.802;37.404;2024-03-08T11:14:52;99260.88;;;2.90;100.00
24620;BME280;12763;55.802;37.404;2024-03-08T11:17:40;99251.16;;;2.95;100.00
24620;BME280;12763;55.802;37.404;2024-03-08T11:20:16;99245.38;;;2.90;100.00
24620;BME280;12763;55.802;37.404;2024-03-08T11:25:39;99243.81;;;2.96;100.00
24620;BME280;12763;55.802;37.404;2024-03-08T11:30:44;99252.38;;;3.24;100.00
24620;BME280;12763;55.802;37.404;2024-03-08T11:33:16;99255.81;;;3.18;100.00
24620;BME280;12763;55.802;37.404;2024-03-08T11:35:43;99254.59;;;3.28;100.00
24620;BME280;12763;55.802;37.404;2024-03-08T11:38:11;99242.69;;;3.21;100.00
24620;BME280;12763;55.802;37.404;2024-03-08T11:40:39;99246.69;;;4.01;99.15
24620;BME280;12763;55.802;37.404;2024-03-08T11:43:05;99254.59;;;3.74;98.07
24620;BME280;12763;55.802;37.404;2024-03-08T11:45:35;99243.56;;;3.90;97.31
24620;BME280;12763;55.802;37.404;2024-03-08T11:48:06;99254.16;;;3.62;98.10
24620;BME280;12763;55.802;37.404;2024-03-08T11:50:32;99244.97;;;3.63;98.08
24620;BME280;12763;55.802;37.404;2024-03-08T11:53:03;99245.34;;;3.83;97.38
24620;BME280;12763;55.802;37.404;2024-03-08T11:55:31;99250.97;;;3.81;96.54
24620;BME280;12763;55.802;37.404;2024-03-08T11:58:04;99238.66;;;3.85;95.70
24620;BME280;12763;55.802;37.404;2024-03-08T12:00:34;99250.88;;;4.12;95.25
24620;BME280;12763;55.802;37.404;2024-03-08T12:03:08;99252.59;;;3.68;97.72
24620;BME280;12763;55.802;37.404;2024-03-08T12:05:37;99251.31;;;4.01;96.39
24620;BME280;12763;55.802;37.404;2024-03-08T12:08:04;99248.66;;;3.47;97.19
24620;BME280;12763;55.802;37.404;2024-03-08T12:10:38;99256.69;;;3.72;97.34
24620;BME280;12763;55.802;37.404;2024-03-08T12:13:04;99252.00;;;3.80;96.58
24620;BME280;12763;55.802;37.404;2024-03-08T12:15:32;99251.09;;;3.42;98.24
24620;BME280;12763;55.802;37.404;2024-03-08T12:18:00;99257.13;;;3.30;97.79
24620;BME280;12763;55.802;37.404;2024-03-08T12:20:27;99260.44;;;3.17;99.66
24620;BME280;12763;55.802;37.404;2024-03-08T12:22:58;99254.97;;;3.71;98.71
24620;BME280;12763;55.802;37.404;2024-03-08T12:25:33;99255.41;;;3.82;95.60
24620;BME280;12763;55.802;37.404;2024-03-08T12:28:19;99257.19;;;3.90;94.36
24620;BME280;12763;55.802;37.404;2024-03-08T12:30:49;99258.25;;;3.89;93.93
24620;BME280;12763;55.802;37.404;2024-03-08T12:33:20;99257.47;;;4.03;92.58
24620;BME280;12763;55.802;37.404;2024-03-08T12:35:54;99255.97;;;4.15;92.64
24620;BME280;12763;55.802;37.404;2024-03-08T12:38:22;99255.97;;;4.15;92.16
24620;BME280;12763;55.802;37.404;2024-03-08T12:40:55;99258.25;;;4.26;92.00
24620;BME280;12763;55.802;37.404;2024-03-08T12:43:22;99261.06;;;3.81;92.56
24620;BME280;12763;55.802;37.404;2024-03-08T12:45:48;99259.34;;;3.80;93.55
24620;BME280;12763;55.802;37.404;2024-03-08T12:48:14;99268.41;;;3.49;94.13
24620;BME280;12763;55.802;37.404;2024-03-08T12:50:44;99255.03;;;3.09;96.94
24620;BME280;12763;55.802;37.404;2024-03-08T12:53:13;99253.97;;;3.10;97.12
24620;BME280;12763;55.802;37.404;2024-03-08T12:55:39;99246.00;;;3.39;95.29